Time,TemperatureF,DewpointF,PressureIn,WindDirection,WindDirectionDegrees,WindSpeedMPH,WindSpeedGustMPH,Humidity,HourlyPrecipIn,Conditions,Clouds,dailyrainin,SoftwareType,DateUTC
2013-05-19 00:01:00,37.9,33.8,29.95,NE,40,0.0,0.0,85,0.00,RA,,0.00,WeatherDisplay:10.37,2013-05-19 06:01:00,
2013-05-19 00:06:00,37.8,34.0,29.95,NE,40,0.0,0.0,86,0.00,RA,,0.00,WeatherDisplay:10.37,2013-05-19 06:06:00,
2013-05-19 00:11:00,37.7,33.9,29.95,NE,40,0.0,0.0,86,0.00,CLR,,0.00,WeatherDisplay:10.37,2013-05-19 06:11:00,
2013-05-19 00:16:00,37.7,34.2,29.96,NE,40,0.0,0.0,87,0.00,CLR,,0.00,WeatherDisplay:10.37,2013-05-19 06:16:00,
2013-05-19 00:21:00,37.6,34.1,29.96,NE,40,0.0,0.0,87,0.00,CLR,,0.00,WeatherDisplay:10.37,2013-05-19 06:21:00,
2013-05-19 00:26:00,37.6,34.1,29.96,NE,40,0.0,0.0,87,0.00,CLR,,0.00,WeatherDisplay:10.37,2013-05-19 06:26:00,
2013-05-19 00:31:00,37.5,34.0,29.96,NE,40,0.0,0.0,87,0.00,CLR,,0.00,WeatherDisplay:10.37,2013-05-19 06:31:00,
2013-05-19 00:36:00,37.4,33.9,29.96,NE,40,0.0,0.0,87,0.00,CLR,,0.00,WeatherDisplay:10.37,2013-05-19 06:36:00,
2013-05-19 00:41:00,37.3,33.8,29.96,NE,40,0.0,0.0,87,0.00,CLR,,0.00,WeatherDisplay:10.37,2013-05-19 06:41:00,
2013-05-19 00:46:00,37.1,33.6,29.96,NE,40,0.0,0.0,87,0.00,CLR,,0.00,WeatherDisplay:10.37,2013-05-19 06:46:00,
2013-05-19 00:51:00,37.0,33.5,29.96,NE,40,0.0,0.0,87,0.00,CLR,,0.00,WeatherDisplay:10.37,2013-05-19 06:51:00,
2013-05-19 00:56:00,36.9,33.7,29.96,NE,40,0.0,0.0,88,0.00,CLR,,0.00,WeatherDisplay:10.37,2013-05-19 06:56:00,
2013-05-19 01:01:00,36.8,33.6,29.96,NE,40,0.0,0.0,88,0.00,CLR,,0.00,WeatherDisplay:10.37,2013-05-19 07:01:00,
2013-05-19 01:06:00,36.6,33.4,29.96,NE,40,0.0,0.0,88,0.00,CLR,,0.00,WeatherDisplay:10.37,2013-05-19 07:06:00,
2013-05-19 01:11:00,36.5,33.3,29.96,NE,40,0.0,0.0,88,0.00,CLR,,0.00,WeatherDisplay:10.37,2013-05-19 07:11:00,
2013-05-19 01:16:00,36.2,33.0,29.96,NE,40,0.0,0.0,88,0.00,CLR,,0.00,WeatherDisplay:10.37,2013-05-19 07:16:00,
2013-05-19 01:21:00,36.1,33.2,29.96,NE,40,0.0,0.0,89,0.00,CLR,,0.00,WeatherDisplay:10.37,2013-05-19 07:21:00,
2013-05-19 01:26:00,36.0,33.1,29.95,NE,40,0.0,0.0,89,0.00,CLR,,0.00,WeatherDisplay:10.37,2013-05-19 07:26:00,
2013-05-19 01:31:00,36.0,33.1,29.96,NE,40,0.0,0.0,89,0.00,CLR,,0.00,WeatherDisplay:10.37,2013-05-19 07:31:00,
2013-05-19 01:36:00,35.9,33.0,29.96,NE,40,0.0,0.0,89,0.00,CLR,,0.00,WeatherDisplay:10.37,2013-05-19 07:36:00,
2013-05-19 01:41:00,35.7,32.8,29.96,NE,40,0.0,0.0,89,0.00,CLR,,0.00,WeatherDisplay:10.37,2013-05-19 07:41:00,
2013-05-19 01:46:00,35.6,32.7,29.97,NE,40,0.0,0.0,89,0.00,CLR,,0.00,WeatherDisplay:10.37,2013-05-19 07:46:00,
2013-05-19 01:51:00,35.5,32.9,29.96,NE,39,0.0,0.0,90,0.00,CLR,,0.00,WeatherDisplay:10.37,2013-05-19 07:51:00,
2013-05-19 01:56:00,35.5,32.9,29.97,NE,39,0.0,0.0,90,0.00,CLR,,0.00,WeatherDisplay:10.37,2013-05-19 07:56:00,
2013-05-19 02:01:00,35.5,33.1,29.97,SE,140,0.0,0.0,91,0.00,CLR,,0.00,WeatherDisplay:10.37,2013-05-19 08:01:00,
2013-05-19 02:06:00,35.5,33.1,29.97,SE,140,0.0,0.0,91,0.00,CLR,,0.00,WeatherDisplay:10.37,2013-05-19 08:06:00,
2013-05-19 02:11:00,35.7,33.6,29.97,SE,140,0.0,0.0,92,0.00,CLR,,0.00,WeatherDisplay:10.37,2013-05-19 08:11:00,
2013-05-19 02:16:00,35.9,33.8,29.97,SE,140,0.0,0.0,92,0.00,CLR,,0.00,WeatherDisplay:10.37,2013-05-19 08:16:00,
2013-05-19 02:21:00,36.0,33.9,29.96,SE,140,0.0,0.0,92,0.00,CLR,,0.00,WeatherDisplay:10.37,2013-05-19 08:21:00,
2013-05-19 02:26:00,36.1,34.0,29.96,SE,140,0.0,0.0,92,0.00,CLR,,0.00,WeatherDisplay:10.37,2013-05-19 08:26:00,
2013-05-19 02:31:00,36.2,33.8,29.96,WNW,286,1.1,0.0,91,0.00,CLR,,0.00,WeatherDisplay:10.37,2013-05-19 08:31:00,
2013-05-19 02:36:00,36.2,33.8,29.97,WNW,286,2.3,2.3,91,0.00,CLR,,0.00,WeatherDisplay:10.37,2013-05-19 08:36:00,
2013-05-19 02:41:00,36.4,34.0,29.97,WNW,299,1.1,1.1,91,0.00,CLR,,0.00,WeatherDisplay:10.37,2013-05-19 08:41:00,
2013-05-19 02:46:00,36.4,34.0,29.98,WNW,299,0.0,0.0,91,0.01,RA,,0.01,WeatherDisplay:10.37,2013-05-19 08:46:00,
2013-05-19 02:51:00,36.5,34.4,29.98,WNW,299,0.0,0.0,92,0.02,RA,,0.02,WeatherDisplay:10.37,2013-05-19 08:51:00,
2013-05-19 02:56:00,37.0,35.4,29.98,WNW,292,6.9,6.9,94,0.03,RA,,0.03,WeatherDisplay:10.37,2013-05-19 08:56:00,
2013-05-19 03:01:00,37.7,36.4,29.98,WSW,248,6.9,6.9,95,0.05,RA,,0.05,WeatherDisplay:10.37,2013-05-19 09:01:00,
2013-05-19 03:06:00,38.2,36.6,29.98,WSW,248,2.3,2.3,94,0.05,RA,,0.05,WeatherDisplay:10.37,2013-05-19 09:06:00,
2013-05-19 03:11:00,38.4,36.8,29.98,WSW,257,1.1,1.1,94,0.05,,,0.05,WeatherDisplay:10.37,2013-05-19 09:11:00,
2013-05-19 03:16:00,38.8,37.2,29.97,SW,223,3.0,3.0,94,0.05,CLR,,0.05,WeatherDisplay:10.37,2013-05-19 09:16:00,
2013-05-19 03:21:00,38.9,37.3,29.97,SSW,203,3.5,3.5,94,0.05,CLR,,0.05,WeatherDisplay:10.37,2013-05-19 09:21:00,
2013-05-19 03:26:00,39.1,37.5,29.98,SSW,203,2.3,2.3,94,0.05,CLR,,0.05,WeatherDisplay:10.37,2013-05-19 09:26:00,
2013-05-19 03:31:00,39.0,37.1,29.98,NW,310,3.5,3.5,93,0.05,CLR,,0.06,WeatherDisplay:10.37,2013-05-19 09:31:00,
2013-05-19 03:36:00,39.0,36.9,29.99,WNW,303,5.0,5.0,92,0.06,RA,,0.06,WeatherDisplay:10.37,2013-05-19 09:36:00,
2013-05-19 03:41:00,38.9,36.8,29.99,WNW,295,5.0,5.0,92,0.07,RA,,0.07,WeatherDisplay:10.37,2013-05-19 09:41:00,
2013-05-19 03:46:00,38.8,36.7,29.99,NW,319,9.2,9.2,92,0.08,RA,,0.09,WeatherDisplay:10.37,2013-05-19 09:46:00,
2013-05-19 03:51:00,38.8,36.7,30.00,WNW,296,11.5,11.5,92,0.09,RA,,0.11,WeatherDisplay:10.37,2013-05-19 09:51:00,
2013-05-19 03:56:00,38.5,36.1,30.00,SW,236,9.2,9.2,91,0.10,RA,,0.13,WeatherDisplay:10.37,2013-05-19 09:56:00,
2013-05-19 04:01:00,38.2,35.8,30.00,NW,306,4.6,4.6,91,0.10,RA,,0.15,WeatherDisplay:10.37,2013-05-19 10:01:00,
2013-05-19 04:06:00,38.0,35.6,30.00,West,263,3.5,3.5,91,0.12,RA,,0.17,WeatherDisplay:10.37,2013-05-19 10:06:00,
2013-05-19 04:11:00,37.9,35.8,30.00,West,269,2.0,2.0,92,0.14,RA,,0.19,WeatherDisplay:10.37,2013-05-19 10:11:00,
2013-05-19 04:16:00,37.8,35.7,30.00,NW,318,1.1,0.0,92,0.15,RA,,0.21,WeatherDisplay:10.37,2013-05-19 10:16:00,
2013-05-19 04:21:00,37.7,35.3,30.00,NW,306,1.1,0.0,91,0.17,RA,,0.22,WeatherDisplay:10.37,2013-05-19 10:21:00,
2013-05-19 04:26:00,37.6,35.5,29.99,West,275,2.3,2.3,92,0.18,RA,,0.23,WeatherDisplay:10.37,2013-05-19 10:26:00,
2013-05-19 04:31:00,37.5,35.4,29.99,SW,221,3.5,3.5,92,0.19,RA,,0.24,WeatherDisplay:10.37,2013-05-19 10:31:00,
2013-05-19 04:36:00,37.5,35.7,29.99,SSW,195,2.3,0.0,93,0.18,RA,,0.24,WeatherDisplay:10.37,2013-05-19 10:36:00,
2013-05-19 04:41:00,37.4,35.6,29.99,SSW,195,0.0,0.0,93,0.18,RA,,0.25,WeatherDisplay:10.37,2013-05-19 10:41:00,
2013-05-19 04:46:00,37.4,35.6,29.99,SSW,195,1.1,1.1,93,0.16,RA,,0.25,WeatherDisplay:10.37,2013-05-19 10:46:00,
2013-05-19 04:51:00,37.5,35.9,29.99,SSW,195,1.0,0.0,94,0.14,,,0.25,WeatherDisplay:10.37,2013-05-19 10:51:00,
2013-05-19 04:56:00,37.6,36.0,29.99,SSW,195,0.0,0.0,94,0.12,CLR,,0.25,WeatherDisplay:10.37,2013-05-19 10:56:00,
2013-05-19 05:01:00,37.5,35.9,29.99,SSW,195,0.0,0.0,94,0.10,CLR,,0.25,WeatherDisplay:10.37,2013-05-19 11:01:00,
2013-05-19 05:06:00,37.5,35.9,29.99,SSW,195,0.0,0.0,94,0.09,RA,,0.26,WeatherDisplay:10.37,2013-05-19 11:06:00,
2013-05-19 05:11:00,37.6,36.0,29.99,NW,321,3.0,3.0,94,0.08,RA,,0.27,WeatherDisplay:10.37,2013-05-19 11:11:00,
2013-05-19 05:16:00,37.5,35.7,29.99,NW,317,1.1,0.0,93,0.08,RA,,0.28,WeatherDisplay:10.37,2013-05-19 11:16:00,
2013-05-19 05:21:00,37.5,35.9,29.99,NW,317,0.0,0.0,94,0.07,RA,,0.29,WeatherDisplay:10.37,2013-05-19 11:21:00,
2013-05-19 05:26:00,37.5,35.9,29.99,SSW,209,2.3,2.3,94,0.07,RA,,0.30,WeatherDisplay:10.37,2013-05-19 11:26:00,
2013-05-19 05:31:00,37.5,35.9,29.98,South,181,3.5,3.5,94,0.07,RA,,0.31,WeatherDisplay:10.37,2013-05-19 11:31:00,
2013-05-19 05:36:00,37.4,35.8,29.98,SSW,206,4.6,4.6,94,0.07,RA,,0.31,WeatherDisplay:10.37,2013-05-19 11:36:00,
2013-05-19 05:41:00,37.3,35.7,29.97,South,185,3.5,3.5,94,0.06,CLR,,0.31,WeatherDisplay:10.37,2013-05-19 11:41:00,
2013-05-19 05:46:00,37.3,35.7,29.97,SSW,198,3.5,3.5,94,0.06,CLR,,0.31,WeatherDisplay:10.37,2013-05-19 11:46:00,
2013-05-19 05:51:00,37.2,35.6,29.96,SSE,165,3.5,3.5,94,0.06,CLR,,0.31,WeatherDisplay:10.37,2013-05-19 11:51:00,
2013-05-19 05:56:00,37.1,35.5,29.97,SSW,197,0.0,0.0,94,0.06,CLR,,0.31,WeatherDisplay:10.37,2013-05-19 11:56:00,
2013-05-19 06:01:00,37.1,35.5,29.98,West,269,1.0,1.0,94,0.06,CLR,,0.31,WeatherDisplay:10.37,2013-05-19 12:01:00,
2013-05-19 06:06:00,37.1,35.5,29.99,WNW,301,3.5,3.5,94,0.05,CLR,,0.31,WeatherDisplay:10.37,2013-05-19 12:06:00,
2013-05-19 06:11:00,37.1,35.5,29.99,NW,308,3.5,3.5,94,0.04,CLR,,0.32,WeatherDisplay:10.37,2013-05-19 12:11:00,
2013-05-19 06:16:00,36.8,35.0,29.99,WNW,298,0.0,0.0,93,0.05,RA,,0.33,WeatherDisplay:10.37,2013-05-19 12:16:00,
2013-05-19 06:21:00,36.6,35.0,29.99,WNW,298,0.0,0.0,94,0.05,RA,,0.34,WeatherDisplay:10.37,2013-05-19 12:21:00,
2013-05-19 06:26:00,36.6,35.0,29.98,WNW,298,0.0,0.2,94,0.05,RA,,0.35,WeatherDisplay:10.37,2013-05-19 12:26:00,
2013-05-19 06:31:00,36.6,35.3,29.99,WNW,298,0.0,0.0,95,0.04,RA,,0.35,WeatherDisplay:10.37,2013-05-19 12:31:00,
2013-05-19 06:36:00,36.7,35.4,29.99,NE,47,2.0,2.0,95,0.05,RA,,0.36,WeatherDisplay:10.37,2013-05-19 12:36:00,
2013-05-19 06:41:00,36.9,35.6,29.99,NE,51,0.0,0.0,95,0.05,RA,,0.36,WeatherDisplay:10.37,2013-05-19 12:41:00,
2013-05-19 06:46:00,36.9,35.6,29.99,ENE,76,0.0,0.0,95,0.05,,,0.37,WeatherDisplay:10.37,2013-05-19 12:46:00,
2013-05-19 06:51:00,37.0,35.7,29.98,ESE,123,2.0,2.0,95,0.06,RA,,0.37,WeatherDisplay:10.37,2013-05-19 12:51:00,
2013-05-19 06:56:00,37.1,35.8,29.99,SE,138,0.0,0.5,95,0.06,RA,,0.37,WeatherDisplay:10.37,2013-05-19 12:56:00,
2013-05-19 07:01:00,37.2,35.9,29.98,East,85,1.1,1.1,95,0.06,CLR,,0.37,WeatherDisplay:10.37,2013-05-19 13:01:00,
2013-05-19 07:06:00,37.4,36.1,29.98,SSE,150,0.0,0.0,95,0.06,CLR,,0.37,WeatherDisplay:10.37,2013-05-19 13:06:00,
2013-05-19 07:11:00,37.5,36.2,29.98,SSE,150,0.0,0.0,95,0.06,CLR,,0.37,WeatherDisplay:10.37,2013-05-19 13:11:00,
2013-05-19 07:16:00,37.5,36.5,29.98,SW,221,0.0,0.0,96,0.04,CLR,,0.37,WeatherDisplay:10.37,2013-05-19 13:16:00,
2013-05-19 07:21:00,37.7,36.4,29.99,East,80,1.0,0.0,95,0.03,CLR,,0.37,WeatherDisplay:10.37,2013-05-19 13:21:00,
2013-05-19 07:26:00,37.8,36.8,29.98,NNW,346,0.0,0.0,96,0.02,CLR,,0.37,WeatherDisplay:10.37,2013-05-19 13:26:00,
2013-05-19 07:31:00,37.9,36.9,29.98,North,351,1.1,1.1,96,0.02,CLR,,0.37,WeatherDisplay:10.37,2013-05-19 13:31:00,
2013-05-19 07:36:00,37.9,36.9,29.98,North,355,0.0,0.0,96,0.01,CLR,,0.37,WeatherDisplay:10.37,2013-05-19 13:36:00,
2013-05-19 07:41:00,38.0,37.0,29.99,North,355,0.0,0.0,96,0.01,CLR,,0.37,WeatherDisplay:10.37,2013-05-19 13:41:00,
2013-05-19 07:46:00,38.2,37.2,29.99,North,351,0.0,0.0,96,0.01,CLR,,0.37,WeatherDisplay:10.37,2013-05-19 13:46:00,
2013-05-19 07:51:00,38.2,37.2,29.99,North,351,0.0,0.0,96,0.00,CLR,,0.37,WeatherDisplay:10.37,2013-05-19 13:51:00,
2013-05-19 07:56:00,38.2,36.9,29.99,North,355,0.0,0.0,95,0.00,CLR,,0.37,WeatherDisplay:10.37,2013-05-19 13:56:00,
2013-05-19 08:01:00,38.4,37.4,29.99,North,351,0.0,0.0,96,0.00,CLR,,0.37,WeatherDisplay:10.37,2013-05-19 14:01:00,
2013-05-19 08:06:00,38.5,37.5,29.99,North,351,0.0,0.0,96,0.00,CLR,,0.37,WeatherDisplay:10.37,2013-05-19 14:06:00,
2013-05-19 08:11:00,38.7,37.7,29.99,North,351,0.0,0.0,96,0.01,RA,,0.38,WeatherDisplay:10.37,2013-05-19 14:11:00,
2013-05-19 08:16:00,38.9,37.9,29.99,North,351,0.0,0.0,96,0.01,RA,,0.38,WeatherDisplay:10.37,2013-05-19 14:16:00,
2013-05-19 08:21:00,38.9,37.6,29.99,North,351,0.0,0.0,95,0.01,,,0.38,WeatherDisplay:10.37,2013-05-19 14:21:00,
2013-05-19 08:26:00,39.0,37.7,29.99,North,351,0.0,0.0,95,0.01,CLR,,0.38,WeatherDisplay:10.37,2013-05-19 14:26:00,
2013-05-19 08:31:00,39.2,37.9,29.99,North,351,1.1,0.0,95,0.01,CLR,,0.38,WeatherDisplay:10.37,2013-05-19 14:31:00,
2013-05-19 08:36:00,39.5,38.2,29.99,North,355,1.1,0.0,95,0.01,CLR,,0.38,WeatherDisplay:10.37,2013-05-19 14:36:00,
2013-05-19 08:41:00,39.8,38.5,29.99,North,355,1.1,1.1,95,0.01,CLR,,0.38,WeatherDisplay:10.37,2013-05-19 14:41:00,
2013-05-19 08:46:00,40.4,39.4,29.99,North,355,0.0,0.0,96,0.01,CLR,,0.38,WeatherDisplay:10.37,2013-05-19 14:46:00,
2013-05-19 08:51:00,41.1,39.5,29.99,ENE,76,1.1,1.1,94,0.01,CLR,,0.38,WeatherDisplay:10.37,2013-05-19 14:51:00,
2013-05-19 08:56:00,41.6,39.7,29.99,East,81,0.0,0.0,93,0.01,CLR,,0.38,WeatherDisplay:10.37,2013-05-19 14:56:00,
2013-05-19 09:01:00,42.4,40.8,29.99,ESE,121,1.1,1.1,94,0.01,CLR,,0.38,WeatherDisplay:10.37,2013-05-19 15:01:00,
2013-05-19 09:06:00,43.2,40.5,29.99,WSW,254,1.1,0.0,90,0.01,CLR,,0.38,WeatherDisplay:10.37,2013-05-19 15:06:00,
2013-05-19 09:11:00,44.1,40.8,29.99,ESE,115,1.1,0.0,88,0.00,CLR,,0.38,WeatherDisplay:10.37,2013-05-19 15:11:00,
2013-05-19 09:16:00,44.9,41.0,29.99,ESE,108,2.3,0.0,86,0.00,CLR,,0.38,WeatherDisplay:10.37,2013-05-19 15:16:00,
2013-05-19 09:21:00,45.5,41.3,29.99,ENE,75,2.3,2.3,85,0.00,CLR,,0.38,WeatherDisplay:10.37,2013-05-19 15:21:00,
2013-05-19 09:26:00,46.0,41.7,29.99,NNE,29,2.3,2.3,85,0.00,CLR,,0.38,WeatherDisplay:10.37,2013-05-19 15:26:00,
2013-05-19 09:31:00,46.9,43.2,29.99,East,79,3.0,3.0,87,0.00,CLR,,0.38,WeatherDisplay:10.37,2013-05-19 15:31:00,
2013-05-19 09:36:00,47.7,42.8,29.99,ESE,111,3.5,3.5,83,0.00,CLR,,0.38,WeatherDisplay:10.37,2013-05-19 15:36:00,
2013-05-19 09:41:00,47.8,41.3,29.98,SE,142,3.5,3.5,78,0.00,CLR,,0.38,WeatherDisplay:10.37,2013-05-19 15:41:00,
2013-05-19 09:46:00,47.4,41.5,29.98,ESE,119,0.0,0.0,80,0.00,CLR,,0.38,WeatherDisplay:10.37,2013-05-19 15:46:00,
2013-05-19 09:51:00,47.0,40.5,29.98,South,170,1.1,1.1,78,0.00,CLR,,0.38,WeatherDisplay:10.37,2013-05-19 15:51:00,
2013-05-19 09:56:00,46.7,40.5,29.98,South,170,1.1,1.1,79,0.00,CLR,,0.38,WeatherDisplay:10.37,2013-05-19 15:56:00,
2013-05-19 10:01:00,46.2,40.4,29.98,WNW,290,3.0,3.0,80,0.00,CLR,,0.38,WeatherDisplay:10.37,2013-05-19 16:01:00,
2013-05-19 10:06:00,45.7,40.5,29.98,North,9,2.3,2.3,82,0.00,CLR,,0.38,WeatherDisplay:10.37,2013-05-19 16:06:00,
2013-05-19 10:11:00,45.6,41.0,29.98,North,5,1.1,0.0,84,0.00,CLR,,0.38,WeatherDisplay:10.37,2013-05-19 16:11:00,
2013-05-19 10:16:00,45.9,41.6,29.98,NNE,22,2.0,2.0,85,0.00,CLR,,0.38,WeatherDisplay:10.37,2013-05-19 16:16:00,
2013-05-19 10:21:00,46.2,42.2,29.98,NNE,26,3.5,3.5,86,0.00,CLR,,0.38,WeatherDisplay:10.37,2013-05-19 16:21:00,
2013-05-19 10:26:00,46.5,42.2,29.98,NE,40,4.6,4.6,85,0.00,CLR,,0.38,WeatherDisplay:10.37,2013-05-19 16:26:00,
2013-05-19 10:31:00,46.6,41.7,29.97,ENE,74,3.5,3.5,83,0.00,CLR,,0.38,WeatherDisplay:10.37,2013-05-19 16:31:00,
2013-05-19 10:36:00,47.2,42.3,29.98,NE,46,3.5,0.0,83,0.00,CLR,,0.38,WeatherDisplay:10.37,2013-05-19 16:36:00,
2013-05-19 10:41:00,47.8,42.3,29.97,East,94,3.5,3.5,81,0.00,CLR,,0.38,WeatherDisplay:10.37,2013-05-19 16:41:00,
2013-05-19 10:46:00,48.1,42.2,29.97,NE,42,2.3,2.3,80,0.00,CLR,,0.38,WeatherDisplay:10.37,2013-05-19 16:46:00,
2013-05-19 10:51:00,47.7,40.2,29.97,NW,325,1.1,1.1,75,0.00,CLR,,0.38,WeatherDisplay:10.37,2013-05-19 16:51:00,
2013-05-19 10:56:00,47.1,40.6,29.97,NW,304,1.1,1.1,78,0.00,CLR,,0.38,WeatherDisplay:10.37,2013-05-19 16:56:00,
2013-05-19 11:01:00,46.6,40.1,29.97,NE,49,3.5,3.5,78,0.00,CLR,,0.38,WeatherDisplay:10.37,2013-05-19 17:01:00,
2013-05-19 11:06:00,46.5,41.9,29.97,WNW,298,3.0,3.0,84,0.00,CLR,,0.38,WeatherDisplay:10.37,2013-05-19 17:06:00,
2013-05-19 11:11:00,46.5,39.3,29.97,NW,305,3.5,3.5,76,0.00,CLR,,0.38,WeatherDisplay:10.37,2013-05-19 17:11:00,
2013-05-19 11:16:00,46.7,40.5,29.97,NW,316,4.0,4.0,79,0.00,CLR,,0.38,WeatherDisplay:10.37,2013-05-19 17:16:00,
2013-05-19 11:21:00,47.1,38.5,29.97,WSW,241,8.1,8.1,72,0.00,CLR,,0.38,WeatherDisplay:10.37,2013-05-19 17:21:00,
2013-05-19 11:26:00,47.7,40.5,29.97,NW,307,5.8,5.8,76,0.00,CLR,,0.38,WeatherDisplay:10.37,2013-05-19 17:26:00,
2013-05-19 11:31:00,48.5,38.8,29.97,NW,304,11.5,11.5,69,0.00,CLR,,0.38,WeatherDisplay:10.37,2013-05-19 17:31:00,
2013-05-19 11:36:00,48.8,37.9,29.97,West,271,3.5,5.9,66,0.00,CLR,,0.38,WeatherDisplay:10.37,2013-05-19 17:36:00,
2013-05-19 11:41:00,48.7,37.1,29.97,NW,315,9.2,9.2,64,0.00,CLR,,0.38,WeatherDisplay:10.37,2013-05-19 17:41:00,
2013-05-19 11:46:00,48.7,37.5,29.97,WNW,297,10.4,10.4,65,0.00,CLR,,0.38,WeatherDisplay:10.37,2013-05-19 17:46:00,
2013-05-19 11:51:00,49.3,41.4,29.97,NW,317,3.0,3.0,74,0.00,CLR,,0.38,WeatherDisplay:10.37,2013-05-19 17:51:00,
2013-05-19 11:56:00,49.8,37.7,29.97,WNW,296,9.2,9.2,63,0.00,CLR,,0.38,WeatherDisplay:10.37,2013-05-19 17:56:00,
2013-05-19 12:01:00,49.7,37.2,29.97,NW,322,9.2,9.2,62,0.00,CLR,,0.38,WeatherDisplay:10.37,2013-05-19 18:01:00,
2013-05-19 12:06:00,49.2,36.3,29.98,WNW,284,6.9,6.9,61,0.00,CLR,,0.38,WeatherDisplay:10.37,2013-05-19 18:06:00,
2013-05-19 12:11:00,48.8,36.4,29.98,NW,319,9.2,9.2,62,0.00,CLR,,0.38,WeatherDisplay:10.37,2013-05-19 18:11:00,
2013-05-19 12:16:00,48.5,36.5,29.97,WNW,294,5.0,5.0,63,0.00,CLR,,0.38,WeatherDisplay:10.37,2013-05-19 18:16:00,
2013-05-19 12:21:00,48.5,37.3,29.97,WNW,301,8.0,8.0,65,0.00,CLR,,0.38,WeatherDisplay:10.37,2013-05-19 18:21:00,
2013-05-19 12:26:00,49.2,37.9,29.98,NW,305,11.0,11.0,65,0.00,CLR,,0.38,WeatherDisplay:10.37,2013-05-19 18:26:00,
2013-05-19 12:31:00,50.4,38.3,29.98,NW,306,8.1,8.1,63,0.00,CLR,,0.38,WeatherDisplay:10.37,2013-05-19 18:31:00,
2013-05-19 12:36:00,51.1,37.3,29.98,NW,314,10.4,10.4,59,0.00,CLR,,0.38,WeatherDisplay:10.37,2013-05-19 18:36:00,
2013-05-19 12:41:00,51.6,37.7,29.97,North,350,12.7,12.7,59,0.00,CLR,,0.38,WeatherDisplay:10.37,2013-05-19 18:41:00,
2013-05-19 12:46:00,51.9,38.0,29.97,West,281,13.8,13.8,59,0.00,CLR,,0.38,WeatherDisplay:10.37,2013-05-19 18:46:00,
2013-05-19 12:51:00,52.1,37.3,29.97,WNW,294,13.8,13.8,57,0.00,CLR,,0.38,WeatherDisplay:10.37,2013-05-19 18:51:00,
2013-05-19 12:56:00,52.1,36.9,29.97,WNW,302,12.0,12.0,56,0.00,CLR,,0.38,WeatherDisplay:10.37,2013-05-19 18:56:00,
2013-05-19 13:01:00,52.2,37.0,29.96,NW,323,10.4,10.4,56,0.00,CLR,,0.38,WeatherDisplay:10.37,2013-05-19 19:01:00,
2013-05-19 13:06:00,52.2,37.0,29.96,WNW,292,10.4,10.4,56,0.00,CLR,,0.38,WeatherDisplay:10.37,2013-05-19 19:06:00,
2013-05-19 13:11:00,52.4,38.5,29.96,NW,318,8.1,8.1,59,0.00,CLR,,0.38,WeatherDisplay:10.37,2013-05-19 19:11:00,
2013-05-19 13:16:00,52.9,38.5,29.96,NNE,16,10.4,10.4,58,0.00,CLR,,0.38,WeatherDisplay:10.37,2013-05-19 19:16:00,
2013-05-19 13:21:00,53.1,37.3,29.96,West,274,9.2,9.2,55,0.00,CLR,,0.38,WeatherDisplay:10.37,2013-05-19 19:21:00,
2013-05-19 13:26:00,52.9,40.2,29.97,NW,317,4.6,4.6,62,0.00,CLR,,0.38,WeatherDisplay:10.37,2013-05-19 19:26:00,
2013-05-19 13:31:00,53.4,39.9,29.97,WNW,301,7.0,7.0,60,0.00,CLR,,0.38,WeatherDisplay:10.37,2013-05-19 19:31:00,
2013-05-19 13:36:00,53.7,40.1,29.96,NW,309,9.2,9.2,60,0.00,CLR,,0.38,WeatherDisplay:10.37,2013-05-19 19:36:00,
2013-05-19 13:41:00,54.0,38.6,29.97,West,273,9.2,9.2,56,0.00,CLR,,0.38,WeatherDisplay:10.37,2013-05-19 19:41:00,
2013-05-19 13:46:00,53.7,37.9,29.96,WNW,302,5.8,5.8,55,0.00,CLR,,0.38,WeatherDisplay:10.37,2013-05-19 19:46:00,
2013-05-19 13:51:00,53.6,38.3,29.96,NW,311,9.2,9.2,56,0.00,CLR,,0.38,WeatherDisplay:10.37,2013-05-19 19:51:00,
2013-05-19 13:56:00,53.7,40.6,29.96,NW,325,9.2,9.2,61,0.00,CLR,,0.38,WeatherDisplay:10.37,2013-05-19 19:56:00,
2013-05-19 14:01:00,53.8,39.8,29.96,NW,324,9.2,9.2,59,0.00,CLR,,0.38,WeatherDisplay:10.37,2013-05-19 20:01:00,
2013-05-19 14:06:00,53.7,37.9,29.96,NW,323,6.9,6.9,55,0.00,CLR,,0.38,WeatherDisplay:10.37,2013-05-19 20:06:00,
2013-05-19 14:11:00,53.9,38.1,29.96,NW,306,8.1,8.1,55,0.00,CLR,,0.38,WeatherDisplay:10.37,2013-05-19 20:11:00,
2013-05-19 14:16:00,53.7,36.5,29.95,NW,306,11.5,11.5,52,0.00,CLR,,0.38,WeatherDisplay:10.37,2013-05-19 20:16:00,
2013-05-19 14:21:00,53.7,37.4,29.95,NW,308,9.2,9.2,54,0.00,CLR,,0.38,WeatherDisplay:10.37,2013-05-19 20:21:00,
2013-05-19 14:26:00,53.9,36.2,29.95,NW,310,12.0,12.0,51,0.00,CLR,,0.38,WeatherDisplay:10.37,2013-05-19 20:26:00,
2013-05-19 14:31:00,53.5,37.3,29.95,WNW,296,5.0,5.0,54,0.00,CLR,,0.38,WeatherDisplay:10.37,2013-05-19 20:31:00,
2013-05-19 14:36:00,53.9,36.2,29.95,WNW,287,16.1,16.1,51,0.00,CLR,,0.38,WeatherDisplay:10.37,2013-05-19 20:36:00,
2013-05-19 14:41:00,54.1,37.3,29.94,NW,320,11.5,11.5,53,0.00,CLR,,0.38,WeatherDisplay:10.37,2013-05-19 20:41:00,
2013-05-19 14:46:00,54.2,36.5,29.94,NNW,329,8.1,8.1,51,0.00,CLR,,0.38,WeatherDisplay:10.37,2013-05-19 20:46:00,
2013-05-19 14:51:00,54.5,36.2,29.94,NW,315,5.8,5.8,50,0.00,CLR,,0.38,WeatherDisplay:10.37,2013-05-19 20:51:00,
2013-05-19 14:56:00,54.7,36.4,29.94,NW,313,14.0,14.0,50,0.00,CLR,,0.38,WeatherDisplay:10.37,2013-05-19 20:56:00,
2013-05-19 15:01:00,54.7,36.9,29.94,NW,308,6.9,6.9,51,0.00,CLR,,0.38,WeatherDisplay:10.37,2013-05-19 21:01:00,
2013-05-19 15:06:00,54.8,36.5,29.94,WNW,286,8.1,8.1,50,0.00,CLR,,0.38,WeatherDisplay:10.37,2013-05-19 21:06:00,
2013-05-19 15:11:00,54.8,36.0,29.94,WNW,297,11.5,11.5,49,0.00,CLR,,0.38,WeatherDisplay:10.37,2013-05-19 21:11:00,
2013-05-19 15:16:00,54.7,36.9,29.94,SW,228,6.9,6.9,51,0.00,CLR,,0.38,WeatherDisplay:10.37,2013-05-19 21:16:00,
2013-05-19 15:21:00,55.0,35.1,29.94,NW,314,7.0,7.0,47,0.00,CLR,,0.38,WeatherDisplay:10.37,2013-05-19 21:21:00,
2013-05-19 15:26:00,55.2,37.4,29.94,NW,315,4.0,4.0,51,0.00,CLR,,0.38,WeatherDisplay:10.37,2013-05-19 21:26:00,
2013-05-19 15:31:00,54.8,34.4,29.94,WNW,292,10.4,10.4,46,0.00,CLR,,0.38,WeatherDisplay:10.37,2013-05-19 21:31:00,
2013-05-19 15:36:00,54.0,34.7,29.93,West,267,4.6,4.6,48,0.00,CLR,,0.38,WeatherDisplay:10.37,2013-05-19 21:36:00,
2013-05-19 15:41:00,53.5,35.8,29.93,WNW,292,11.5,11.5,51,0.00,CLR,,0.38,WeatherDisplay:10.37,2013-05-19 21:41:00,
2013-05-19 15:46:00,53.4,35.7,29.93,SW,227,3.5,3.5,51,0.00,CLR,,0.38,WeatherDisplay:10.37,2013-05-19 21:46:00,
2013-05-19 15:51:00,53.9,37.6,29.94,SW,235,5.8,5.8,54,0.00,CLR,,0.38,WeatherDisplay:10.37,2013-05-19 21:51:00,
2013-05-19 15:56:00,54.6,35.3,29.93,NW,315,6.0,6.0,48,0.00,CLR,,0.38,WeatherDisplay:10.37,2013-05-19 21:56:00,
2013-05-19 16:01:00,54.8,35.5,29.93,WNW,300,7.0,7.0,48,0.00,CLR,,0.38,WeatherDisplay:10.37,2013-05-19 22:01:00,
2013-05-19 16:06:00,54.6,34.8,29.93,NNW,340,8.1,8.1,47,0.00,CLR,,0.38,WeatherDisplay:10.37,2013-05-19 22:06:00,
2013-05-19 16:11:00,54.6,34.2,29.93,WSW,241,10.4,10.4,46,0.00,CLR,,0.38,WeatherDisplay:10.37,2013-05-19 22:11:00,
2013-05-19 16:16:00,54.4,32.9,29.93,NNW,341,5.8,5.8,44,0.00,CLR,,0.38,WeatherDisplay:10.37,2013-05-19 22:16:00,
2013-05-19 16:21:00,54.4,35.6,29.93,West,281,8.1,8.1,49,0.00,CLR,,0.38,WeatherDisplay:10.37,2013-05-19 22:21:00,
2013-05-19 16:26:00,54.6,36.8,29.93,WNW,296,9.2,9.2,51,0.00,CLR,,0.38,WeatherDisplay:10.37,2013-05-19 22:26:00,
2013-05-19 16:31:00,54.8,34.9,29.93,WNW,284,8.1,8.1,47,0.00,CLR,,0.38,WeatherDisplay:10.37,2013-05-19 22:31:00,
2013-05-19 16:36:00,55.1,35.7,29.93,SSW,210,4.6,4.6,48,0.00,CLR,,0.38,WeatherDisplay:10.37,2013-05-19 22:36:00,
2013-05-19 16:41:00,55.3,34.3,29.93,West,276,9.2,9.2,45,0.00,CLR,,0.38,WeatherDisplay:10.37,2013-05-19 22:41:00,
2013-05-19 16:46:00,55.4,36.0,29.93,NW,308,6.9,6.9,48,0.00,CLR,,0.38,WeatherDisplay:10.37,2013-05-19 22:46:00,
2013-05-19 16:51:00,55.6,36.2,29.93,WSW,237,3.5,3.5,48,0.00,CLR,,0.38,WeatherDisplay:10.37,2013-05-19 22:51:00,
2013-05-19 16:56:00,55.5,35.6,29.93,West,275,8.1,8.1,47,0.00,CLR,,0.38,WeatherDisplay:10.37,2013-05-19 22:56:00,
2013-05-19 17:01:00,54.9,37.1,29.94,West,271,19.6,19.6,51,0.00,CLR,,0.38,WeatherDisplay:10.37,2013-05-19 23:01:00,
2013-05-19 17:06:00,53.8,38.5,29.94,WNW,302,18.4,18.4,56,0.00,CLR,,0.38,WeatherDisplay:10.37,2013-05-19 23:06:00,
2013-05-19 17:11:00,52.2,37.4,29.95,NW,313,12.0,12.0,57,0.00,CLR,,0.38,WeatherDisplay:10.37,2013-05-19 23:11:00,
2013-05-19 17:16:00,50.6,36.8,29.96,NNW,328,16.0,16.0,59,0.00,CLR,,0.38,WeatherDisplay:10.37,2013-05-19 23:16:00,
2013-05-19 17:21:00,49.5,36.6,29.96,WNW,298,13.8,13.8,61,0.00,CLR,,0.38,WeatherDisplay:10.37,2013-05-19 23:21:00,
2013-05-19 17:26:00,48.2,37.8,29.96,WNW,296,13.8,13.8,67,0.00,CLR,,0.38,WeatherDisplay:10.37,2013-05-19 23:26:00,
2013-05-19 17:31:00,46.6,36.6,29.96,NW,304,10.4,10.4,68,0.00,CLR,,0.38,WeatherDisplay:10.37,2013-05-19 23:31:00,
2013-05-19 17:36:00,45.8,36.9,29.96,WSW,243,9.2,9.2,71,0.00,CLR,,0.38,WeatherDisplay:10.37,2013-05-19 23:36:00,
2013-05-19 17:41:00,45.5,36.6,29.97,WNW,284,7.0,7.0,71,0.01,RA,,0.39,WeatherDisplay:10.37,2013-05-19 23:41:00,
2013-05-19 17:46:00,45.4,36.5,29.96,WNW,289,6.9,6.9,71,0.01,RA,,0.39,WeatherDisplay:10.37,2013-05-19 23:46:00,
2013-05-19 17:51:00,45.5,36.6,29.96,West,266,4.6,4.6,71,0.01,CLR,,0.39,WeatherDisplay:10.37,2013-05-19 23:51:00,
2013-05-19 17:56:00,46.0,37.8,29.97,WSW,251,6.9,6.9,73,0.01,CLR,,0.39,WeatherDisplay:10.37,2013-05-19 23:56:00,
2013-05-19 18:01:00,46.5,37.6,29.97,WSW,244,3.5,3.5,71,0.01,CLR,,0.39,WeatherDisplay:10.37,2013-05-20 00:01:00,
2013-05-19 18:06:00,47.1,37.1,29.97,NW,308,8.0,8.0,68,0.01,CLR,,0.39,WeatherDisplay:10.37,2013-05-20 00:06:00,
2013-05-19 18:11:00,47.3,37.6,29.97,NW,309,8.1,8.1,69,0.01,CLR,,0.39,WeatherDisplay:10.37,2013-05-20 00:11:00,
2013-05-19 18:16:00,47.1,38.2,29.97,WNW,294,5.8,5.8,71,0.01,CLR,,0.39,WeatherDisplay:10.37,2013-05-20 00:16:00,
2013-05-19 18:21:00,46.7,37.8,29.97,WSW,238,10.4,10.4,71,0.01,CLR,,0.39,WeatherDisplay:10.37,2013-05-20 00:21:00,
2013-05-19 18:26:00,46.5,38.0,29.97,NW,304,4.6,4.6,72,0.01,CLR,,0.39,WeatherDisplay:10.37,2013-05-20 00:26:00,
2013-05-19 18:31:00,46.4,38.9,29.98,WSW,242,3.5,3.5,75,0.01,CLR,,0.39,WeatherDisplay:10.37,2013-05-20 00:31:00,
2013-05-19 18:36:00,46.3,38.5,29.98,West,281,3.5,3.5,74,0.01,CLR,,0.39,WeatherDisplay:10.37,2013-05-20 00:36:00,
2013-05-19 18:41:00,46.2,36.2,29.98,West,269,6.9,6.9,68,0.00,CLR,,0.39,WeatherDisplay:10.37,2013-05-20 00:41:00,
2013-05-19 18:46:00,46.2,36.2,29.97,WSW,246,3.5,3.5,68,0.00,CLR,,0.39,WeatherDisplay:10.37,2013-05-20 00:46:00,
2013-05-19 18:51:00,46.3,36.3,29.97,WNW,298,6.0,6.0,68,0.00,CLR,,0.39,WeatherDisplay:10.37,2013-05-20 00:51:00,
2013-05-19 18:56:00,46.5,36.1,29.98,WNW,284,3.5,3.5,67,0.00,CLR,,0.39,WeatherDisplay:10.37,2013-05-20 00:56:00,
2013-05-19 19:01:00,46.9,36.1,29.98,WNW,288,4.0,4.0,66,0.00,CLR,,0.39,WeatherDisplay:10.37,2013-05-20 01:01:00,
2013-05-19 19:06:00,47.4,35.4,29.98,NW,320,4.6,4.6,63,0.00,CLR,,0.39,WeatherDisplay:10.37,2013-05-20 01:06:00,
2013-05-19 19:11:00,48.0,35.6,29.98,West,272,3.5,3.5,62,0.00,CLR,,0.39,WeatherDisplay:10.37,2013-05-20 01:11:00,
2013-05-19 19:16:00,48.5,36.5,29.99,West,278,3.5,3.5,63,0.00,CLR,,0.39,WeatherDisplay:10.37,2013-05-20 01:16:00,
2013-05-19 19:21:00,48.8,35.9,29.99,WNW,289,3.5,3.5,61,0.00,CLR,,0.39,WeatherDisplay:10.37,2013-05-20 01:21:00,
2013-05-19 19:26:00,49.0,35.3,29.99,WNW,283,1.1,1.1,59,0.00,CLR,,0.39,WeatherDisplay:10.37,2013-05-20 01:26:00,
2013-05-19 19:31:00,49.0,36.1,29.99,NW,306,4.6,4.6,61,0.00,CLR,,0.39,WeatherDisplay:10.37,2013-05-20 01:31:00,
2013-05-19 19:36:00,49.0,35.7,29.99,West,262,3.0,3.0,60,0.00,CLR,,0.39,WeatherDisplay:10.37,2013-05-20 01:36:00,
2013-05-19 19:41:00,48.8,35.9,29.99,WNW,295,3.5,3.5,61,0.00,CLR,,0.39,WeatherDisplay:10.37,2013-05-20 01:41:00,
2013-05-19 19:46:00,48.7,35.4,29.99,NW,307,3.5,3.5,60,0.00,CLR,,0.39,WeatherDisplay:10.37,2013-05-20 01:46:00,
2013-05-19 19:51:00,48.5,35.7,29.99,West,279,1.0,0.0,61,0.00,CLR,,0.39,WeatherDisplay:10.37,2013-05-20 01:51:00,
2013-05-19 19:56:00,48.4,36.4,29.99,NW,304,0.0,0.0,63,0.00,CLR,,0.39,WeatherDisplay:10.37,2013-05-20 01:56:00,
2013-05-19 20:01:00,48.3,36.3,29.99,North,360,1.1,0.0,63,0.00,CLR,,0.39,WeatherDisplay:10.37,2013-05-20 02:01:00,
2013-05-19 20:06:00,48.1,36.1,29.99,NW,307,4.6,4.6,63,0.00,CLR,,0.39,WeatherDisplay:10.37,2013-05-20 02:06:00,
2013-05-19 20:11:00,47.8,37.0,30.00,WNW,298,3.5,3.5,66,0.00,CLR,,0.39,WeatherDisplay:10.37,2013-05-20 02:11:00,
2013-05-19 20:16:00,47.6,36.0,30.00,NW,325,3.5,3.5,64,0.00,CLR,,0.39,WeatherDisplay:10.37,2013-05-20 02:16:00,
2013-05-19 20:21:00,47.4,36.2,30.00,West,273,3.5,3.5,65,0.00,CLR,,0.39,WeatherDisplay:10.37,2013-05-20 02:21:00,
2013-05-19 20:26:00,47.1,35.9,30.00,NW,309,3.5,3.5,65,0.00,CLR,,0.39,WeatherDisplay:10.37,2013-05-20 02:26:00,
2013-05-19 20:31:00,46.8,35.6,30.00,WNW,302,6.0,6.0,65,0.00,CLR,,0.39,WeatherDisplay:10.37,2013-05-20 02:31:00,
2013-05-19 20:36:00,46.5,35.7,30.00,NNW,336,3.5,3.5,66,0.00,CLR,,0.39,WeatherDisplay:10.37,2013-05-20 02:36:00,
2013-05-19 20:41:00,46.2,35.8,30.01,WNW,289,7.0,7.0,67,0.00,CLR,,0.39,WeatherDisplay:10.37,2013-05-20 02:41:00,
2013-05-19 20:46:00,46.0,35.7,30.01,West,267,5.8,5.8,67,0.00,CLR,,0.39,WeatherDisplay:10.37,2013-05-20 02:46:00,
2013-05-19 20:51:00,45.8,35.8,30.01,West,272,6.0,6.0,68,0.00,CLR,,0.39,WeatherDisplay:10.37,2013-05-20 02:51:00,
2013-05-19 20:56:00,45.5,35.9,30.01,NNW,331,10.0,10.0,69,0.00,CLR,,0.39,WeatherDisplay:10.37,2013-05-20 02:56:00,
2013-05-19 21:01:00,45.3,36.1,30.01,West,261,9.2,9.2,70,0.00,CLR,,0.39,WeatherDisplay:10.37,2013-05-20 03:01:00,
2013-05-19 21:06:00,45.0,36.2,30.01,WNW,290,4.6,4.7,71,0.00,CLR,,0.39,WeatherDisplay:10.37,2013-05-20 03:06:00,
2013-05-19 21:11:00,44.6,35.4,30.01,WSW,257,6.9,6.9,70,0.00,CLR,,0.39,WeatherDisplay:10.37,2013-05-20 03:11:00,
2013-05-19 21:16:00,44.3,35.1,30.01,WSW,258,5.8,5.8,70,0.00,CLR,,0.39,WeatherDisplay:10.37,2013-05-20 03:16:00,
2013-05-19 21:21:00,44.2,35.0,30.01,WSW,256,6.9,6.9,70,0.00,CLR,,0.39,WeatherDisplay:10.37,2013-05-20 03:21:00,
2013-05-19 21:26:00,44.1,34.9,30.01,West,271,9.2,9.2,70,0.00,CLR,,0.39,WeatherDisplay:10.37,2013-05-20 03:26:00,
2013-05-19 21:31:00,44.2,35.4,30.02,NW,322,9.2,9.2,71,0.00,CLR,,0.39,WeatherDisplay:10.37,2013-05-20 03:31:00,
2013-05-19 21:36:00,44.3,35.1,30.02,WNW,289,5.8,5.8,70,0.00,CLR,,0.39,WeatherDisplay:10.37,2013-05-20 03:36:00,
2013-05-19 21:41:00,44.3,35.5,30.02,West,277,5.8,5.8,71,0.00,CLR,,0.39,WeatherDisplay:10.37,2013-05-20 03:41:00,
2013-05-19 21:46:00,44.3,35.5,30.03,NW,315,3.5,3.5,71,0.00,CLR,,0.39,WeatherDisplay:10.37,2013-05-20 03:46:00,
2013-05-19 21:51:00,44.3,35.5,30.03,WNW,300,3.5,3.5,71,0.00,CLR,,0.39,WeatherDisplay:10.37,2013-05-20 03:51:00,
2013-05-19 21:56:00,44.3,35.5,30.04,West,272,4.6,4.6,71,0.00,CLR,,0.39,WeatherDisplay:10.37,2013-05-20 03:56:00,
2013-05-19 22:01:00,44.3,35.8,30.04,WNW,301,3.5,3.5,72,0.00,CLR,,0.39,WeatherDisplay:10.37,2013-05-20 04:01:00,
2013-05-19 22:06:00,44.4,35.9,30.04,West,281,8.1,8.1,72,0.00,CLR,,0.39,WeatherDisplay:10.37,2013-05-20 04:06:00,
2013-05-19 22:11:00,44.3,36.2,30.04,WNW,286,11.5,11.5,73,0.00,CLR,,0.39,WeatherDisplay:10.37,2013-05-20 04:11:00,
2013-05-19 22:16:00,44.3,36.5,30.04,NW,312,5.8,5.8,74,0.00,CLR,,0.39,WeatherDisplay:10.37,2013-05-20 04:16:00,
2013-05-19 22:21:00,44.3,36.9,30.04,NW,312,3.5,3.5,75,0.00,CLR,,0.39,WeatherDisplay:10.37,2013-05-20 04:21:00,
2013-05-19 22:26:00,44.1,36.7,30.04,NW,320,4.6,4.6,75,0.00,CLR,,0.39,WeatherDisplay:10.37,2013-05-20 04:26:00,
2013-05-19 22:31:00,44.0,36.6,30.03,West,264,3.5,3.5,75,0.00,CLR,,0.39,WeatherDisplay:10.37,2013-05-20 04:31:00,
2013-05-19 22:36:00,43.8,36.4,30.03,NW,312,2.3,0.0,75,0.00,CLR,,0.39,WeatherDisplay:10.37,2013-05-20 04:36:00,
2013-05-19 22:41:00,43.8,36.7,30.03,NW,312,1.1,0.0,76,0.00,CLR,,0.39,WeatherDisplay:10.37,2013-05-20 04:41:00,
2013-05-19 22:46:00,43.8,36.7,30.03,SW,219,0.0,0.1,76,0.00,CLR,,0.39,WeatherDisplay:10.37,2013-05-20 04:46:00,
2013-05-19 22:51:00,43.7,35.6,30.02,West,272,3.5,3.5,73,0.00,CLR,,0.39,WeatherDisplay:10.37,2013-05-20 04:51:00,
2013-05-19 22:56:00,43.8,36.7,30.03,ENE,68,2.3,0.0,76,0.00,CLR,,0.39,WeatherDisplay:10.37,2013-05-20 04:56:00,
2013-05-19 23:01:00,43.8,36.0,30.02,NW,309,5.8,5.8,74,0.00,CLR,,0.39,WeatherDisplay:10.37,2013-05-20 05:01:00,
2013-05-19 23:06:00,43.9,35.8,30.03,NW,311,3.5,3.5,73,0.00,CLR,,0.39,WeatherDisplay:10.37,2013-05-20 05:06:00,
2013-05-19 23:11:00,44.0,35.9,30.02,NW,314,0.0,0.0,73,0.00,CLR,,0.39,WeatherDisplay:10.37,2013-05-20 05:11:00,
2013-05-19 23:16:00,44.0,36.6,30.03,ESE,111,0.0,0.0,75,0.00,CLR,,0.39,WeatherDisplay:10.37,2013-05-20 05:16:00,
2013-05-19 23:21:00,43.9,36.8,30.02,East,83,0.0,0.0,76,0.00,CLR,,0.39,WeatherDisplay:10.37,2013-05-20 05:21:00,
2013-05-19 23:26:00,43.7,36.6,30.02,NNE,31,3.5,3.5,76,0.00,CLR,,0.39,WeatherDisplay:10.37,2013-05-20 05:26:00,
2013-05-19 23:31:00,43.5,36.4,30.02,NNE,31,0.0,0.0,76,0.00,CLR,,0.39,WeatherDisplay:10.37,2013-05-20 05:31:00,
2013-05-19 23:36:00,43.3,36.6,30.01,NNE,31,0.0,0.0,77,0.00,CLR,,0.39,WeatherDisplay:10.37,2013-05-20 05:36:00,
2013-05-19 23:41:00,43.1,36.7,30.02,NNE,31,0.0,0.0,78,0.00,CLR,,0.39,WeatherDisplay:10.37,2013-05-20 05:41:00,
2013-05-19 23:46:00,42.8,36.7,30.02,NNE,31,0.0,0.0,79,0.00,CLR,,0.39,WeatherDisplay:10.37,2013-05-20 05:46:00,
2013-05-19 23:51:00,42.5,36.8,30.02,NNE,31,0.0,0.0,80,0.00,CLR,,0.39,WeatherDisplay:10.37,2013-05-20 05:51:00,
2013-05-19 23:56:00,42.4,36.7,30.02,NNE,31,0.0,0.0,80,0.00,CLR,,0.39,WeatherDisplay:10.37,2013-05-20 05:56:00,